Time;durP1;ratioP1;P1;durP2;ratioP2;P2;SDS_P1;SDS_P2;PMS_P1;PMS_P2;Temp;Humidity;BMP_temperature;BMP_pressure;BME280_temperature;BME280_humidity;BME280_pressure;Samples;Min_cycle;Max_cycle;Signal;HPM_P1;HPM_P2
2022/12/01 00:03:48;;;;;;;;;;;;;;;0.64;100.00;96050.28;10505239;28;2295;-67
2022/12/01 00:14:19;;;;;;;;;;;;;;;0.39;100.00;96029.75;10509010;28;2054;-67
2022/12/01 00:19:22;;;;;;;;;;;;;;;0.46;100.00;96033.19;10503567;28;2356;-67
2022/12/01 00:24:27;;;;;;;;;;;;;;;0.41;100.00;96032.19;10503344;28;2351;-68
2022/12/01 00:29:30;;;;;;;;;;;;;;;0.40;100.00;96034.00;10502513;28;2290;-67
2022/12/01 00:34:34;;;;;;;;;;;;;;;0.34;100.00;96026.88;10505546;28;2400;-68
2022/12/01 00:39:37;;;;;;;;;;;;;;;0.24;100.00;96031.75;10513073;28;2333;-69
2022/12/01 00:44:41;;;;;;;;;;;;;;;0.30;100.00;96024.84;10503717;28;2391;-68
2022/12/01 00:49:45;;;;;;;;;;;;;;;0.33;100.00;96022.63;10510669;28;2279;-69
2022/12/01 00:54:48;;;;;;;;;;;;;;;0.32;100.00;96023.66;10512887;28;2295;-68
2022/12/01 00:59:52;;;;;;;;;;;;;;;0.41;100.00;96026.88;10517127;28;2065;-68
2022/12/01 01:04:55;;;;;;;;;;;;;;;0.28;100.00;96035.63;10504853;28;2375;-66
2022/12/01 01:09:58;;;;;;;;;;;;;;;0.44;100.00;96040.50;10515485;28;2328;-72
2022/12/01 01:15:01;;;;;;;;;;;;;;;0.37;100.00;96044.97;10507099;28;2389;-74
2022/12/01 01:20:05;;;;;;;;;;;;;;;0.51;100.00;96040.53;10519802;28;2428;-76
2022/12/01 01:25:08;;;;;;;;;;;;;;;0.44;100.00;96042.34;10510070;28;2303;-67
2022/12/01 01:30:12;;;;;;;;;;;;;;;0.40;100.00;96039.31;10498788;28;2363;-68
2022/12/01 01:35:15;;;;;;;;;;;;;;;0.45;100.00;96031.56;10501873;28;2422;-68
2022/12/01 01:40:18;;;;;;;;;;;;;;;0.35;100.00;96039.09;10501531;28;2452;-68
2022/12/01 01:45:21;;;;;;;;;;;;;;;0.41;100.00;96038.28;10510516;28;2380;-66
2022/12/01 01:50:24;;;;;;;;;;;;;;;0.39;100.00;96035.03;10510235;28;2274;-69
2022/12/01 01:55:28;;;;;;;;;;;;;;;0.31;100.00;96034.41;10500456;28;2316;-68
2022/12/01 02:00:31;;;;;;;;;;;;;;;0.40;100.00;96041.94;10514069;28;2338;-69
2022/12/01 02:05:35;;;;;;;;;;;;;;;0.48;100.00;96033.78;10506684;28;2369;-67
2022/12/01 02:10:38;;;;;;;;;;;;;;;0.42;100.00;96012.63;10504249;28;2310;-71
2022/12/01 02:15:41;;;;;;;;;;;;;;;0.67;100.00;96015.47;10507096;28;2311;-70
2022/12/01 02:20:44;;;;;;;;;;;;;;;0.75;100.00;96017.91;10517297;28;2381;-68
2022/12/01 02:25:48;;;;;;;;;;;;;;;0.35;100.00;96017.13;10506108;28;2336;-68
2022/12/01 02:30:51;;;;;;;;;;;;;;;0.43;100.00;96017.72;10514287;28;2286;-67
2022/12/01 02:35:54;;;;;;;;;;;;;;;0.53;100.00;96020.78;10513228;28;2474;-69
2022/12/01 02:40:57;;;;;;;;;;;;;;;0.59;100.00;96015.69;10509967;28;2339;-71
2022/12/01 02:46:01;;;;;;;;;;;;;;;0.63;100.00;96019.53;10509096;28;2241;-67
2022/12/01 02:51:04;;;;;;;;;;;;;;;0.63;100.00;96012.41;10514307;28;2049;-69
2022/12/01 02:56:07;;;;;;;;;;;;;;;0.66;100.00;96005.91;10506064;28;2345;-77
2022/12/01 03:01:10;;;;;;;;;;;;;;;0.64;100.00;96010.59;10516288;28;2023;-75
2022/12/01 03:06:14;;;;;;;;;;;;;;;0.58;100.00;96006.13;10508624;28;2014;-74
2022/12/01 03:11:25;;;;;;;;;;;;;;;0.50;100.00;96002.66;10511531;28;1962;-69
2022/12/01 03:16:29;;;;;;;;;;;;;;;0.62;100.00;96002.03;10509140;28;2361;-69
2022/12/01 03:21:32;;;;;;;;;;;;;;;0.52;100.00;96003.28;10513656;28;2345;-68
2022/12/01 03:26:35;;;;;;;;;;;;;;;0.64;100.00;96000.84;10508213;28;2288;-68
2022/12/01 03:31:39;;;;;;;;;;;;;;;0.76;100.00;96003.63;10513392;28;2372;-69
2022/12/01 03:36:42;;;;;;;;;;;;;;;0.73;100.00;95998.78;10502490;28;2669;-67
2022/12/01 03:41:45;;;;;;;;;;;;;;;0.67;100.00;96004.88;10512240;28;2360;-67
2022/12/01 03:46:49;;;;;;;;;;;;;;;0.75;100.00;96012.59;10508967;28;2349;-67
2022/12/01 03:51:54;;;;;;;;;;;;;;;0.82;100.00;96016.03;10512793;28;2313;-69
2022/12/01 03:56:57;;;;;;;;;;;;;;;0.93;100.00;96007.47;10507126;28;2288;-68
2022/12/01 04:02:00;;;;;;;;;;;;;;;0.79;100.00;96004.06;10514549;28;2478;-69
2022/12/01 04:07:03;;;;;;;;;;;;;;;0.86;100.00;96011.97;10510652;28;2337;-68
2022/12/01 04:17:27;;;;;;;;;;;;;;;0.85;100.00;96002.41;10512683;28;2346;-68
2022/12/01 04:22:31;;;;;;;;;;;;;;;0.91;100.00;96006.88;10510805;28;2355;-68
2022/12/01 04:27:34;;;;;;;;;;;;;;;0.98;100.00;96009.50;10512743;28;2300;-68
2022/12/01 04:32:37;;;;;;;;;;;;;;;0.79;100.00;96013.84;10517694;28;2349;-67
2022/12/01 04:37:40;;;;;;;;;;;;;;;0.95;100.00;96007.28;10510487;28;2015;-72
2022/12/01 04:42:44;;;;;;;;;;;;;;;0.99;100.00;95993.41;10512679;28;2208;-71
2022/12/01 04:47:47;;;;;;;;;;;;;;;0.96;100.00;96001.78;10519146;28;2328;-70
2022/12/01 04:52:51;;;;;;;;;;;;;;;0.95;100.00;96002.78;10510335;28;2326;-67
2022/12/01 04:57:54;;;;;;;;;;;;;;;0.96;100.00;95998.34;10517326;28;2353;-68
2022/12/01 05:02:57;;;;;;;;;;;;;;;0.79;100.00;96013.84;10495282;28;2134;-69
2022/12/01 05:08:00;;;;;;;;;;;;;;;0.93;100.00;96014.63;10513095;28;2335;-67
2022/12/01 05:13:03;;;;;;;;;;;;;;;1.04;100.00;96012.16;10507094;28;2352;-68
2022/12/01 05:18:07;;;;;;;;;;;;;;;1.04;100.00;96006.84;10512051;28;2349;-68
2022/12/01 05:23:10;;;;;;;;;;;;;;;1.16;100.00;96007.03;10505149;28;2358;-70
2022/12/01 05:28:19;;;;;;;;;;;;;;;0.92;100.00;96016.44;10509764;28;2307;-69
2022/12/01 05:33:22;;;;;;;;;;;;;;;0.95;100.00;96012.56;10499226;28;2566;-68
2022/12/01 05:38:25;;;;;;;;;;;;;;;1.18;100.00;96014.75;10504805;28;2487;-67
2022/12/01 05:43:28;;;;;;;;;;;;;;;1.09;100.00;96006.22;10500508;28;2277;-70
2022/12/01 05:48:32;;;;;;;;;;;;;;;1.21;100.00;96009.88;10507167;28;2385;-74
2022/12/01 05:53:36;;;;;;;;;;;;;;;1.20;100.00;96007.41;10509029;28;2468;-68
2022/12/01 05:58:39;;;;;;;;;;;;;;;1.29;100.00;96008.81;10506875;28;2325;-68
2022/12/01 06:03:42;;;;;;;;;;;;;;;1.14;100.00;96010.88;10514274;28;2286;-71
2022/12/01 06:08:45;;;;;;;;;;;;;;;1.05;100.00;96013.75;10489811;28;2424;-70
2022/12/01 06:13:48;;;;;;;;;;;;;;;1.07;100.00;96014.38;10507905;28;2094;-67
2022/12/01 06:18:51;;;;;;;;;;;;;;;1.15;100.00;96016.00;10514988;28;2428;-68
2022/12/01 06:23:55;;;;;;;;;;;;;;;1.23;100.00;96014.94;10536584;28;2260;-67
2022/12/01 06:28:58;;;;;;;;;;;;;;;1.26;100.00;96019.81;10507461;28;2350;-69
2022/12/01 06:34:01;;;;;;;;;;;;;;;1.19;100.00;96019.84;10512615;28;2323;-68
2022/12/01 06:39:04;;;;;;;;;;;;;;;1.22;100.00;96030.03;10522315;28;2333;-69
2022/12/01 06:44:07;;;;;;;;;;;;;;;1.26;100.00;96030.41;10518544;28;2292;-68
2022/12/01 06:49:11;;;;;;;;;;;;;;;1.34;100.00;96032.84;10509449;28;2326;-70
2022/12/01 06:54:14;;;;;;;;;;;;;;;1.31;100.00;96038.53;10508267;28;2353;-71
2022/12/01 06:59:18;;;;;;;;;;;;;;;1.38;100.00;96038.50;10506678;28;2322;-70
2022/12/01 07:04:21;;;;;;;;;;;;;;;1.43;100.00;96036.06;10517248;28;2294;-69
2022/12/01 07:09:24;;;;;;;;;;;;;;;1.39;100.00;96040.13;10515249;28;2343;-73
2022/12/01 07:14:28;;;;;;;;;;;;;;;1.38;100.00;96039.31;10513850;28;2378;-74
2022/12/01 07:19:31;;;;;;;;;;;;;;;1.47;100.00;96040.72;10523024;28;2299;-69
2022/12/01 07:24:35;;;;;;;;;;;;;;;1.19;100.00;96046.31;10499117;28;2372;-76
2022/12/01 07:29:38;;;;;;;;;;;;;;;1.30;100.00;96053.63;10510672;28;2302;-69
2022/12/01 07:34:41;;;;;;;;;;;;;;;1.38;100.00;96055.22;10510522;28;2365;-70
2022/12/01 07:39:44;;;;;;;;;;;;;;;1.46;100.00;96062.13;10499993;28;2346;-68
2022/12/01 07:44:47;;;;;;;;;;;;;;;1.44;100.00;96064.97;10526125;28;2268;-69
2022/12/01 07:49:50;;;;;;;;;;;;;;;1.33;100.00;96057.69;10515279;28;2571;-68
2022/12/01 07:54:54;;;;;;;;;;;;;;;1.42;100.00;96061.72;10517156;28;2174;-68
2022/12/01 07:59:57;;;;;;;;;;;;;;;1.39;100.00;96069.28;10507038;28;2571;-69
2022/12/01 08:05:01;;;;;;;;;;;;;;;1.48;100.00;96060.91;10518559;28;2598;-72
2022/12/01 08:10:04;;;;;;;;;;;;;;;1.44;100.00;96072.94;10521987;28;2602;-69
2022/12/01 08:15:07;;;;;;;;;;;;;;;1.53;100.00;96071.69;10520545;28;2598;-71
2022/12/01 08:20:11;;;;;;;;;;;;;;;1.55;100.00;96071.47;10513600;28;2169;-74
2022/12/01 08:25:14;;;;;;;;;;;;;;;1.85;100.00;96061.16;10507191;28;2628;-68
2022/12/01 08:30:17;;;;;;;;;;;;;;;1.75;100.00;96066.09;10507169;28;2635;-68
2022/12/01 08:35:20;;;;;;;;;;;;;;;1.90;100.00;96063.97;10516039;28;2689;-70
2022/12/01 08:40:33;;;;;;;;;;;;;;;1.85;100.00;96061.16;10521859;28;2641;-69
2022/12/01 08:45:38;;;;;;;;;;;;;;;1.96;100.00;96065.75;10517721;28;2196;-67
2022/12/01 08:50:41;;;;;;;;;;;;;;;2.10;100.00;96054.09;10516234;28;2626;-69
2022/12/01 08:55:44;;;;;;;;;;;;;;;2.26;100.00;96062.53;10514251;28;2590;-69
2022/12/01 09:00:47;;;;;;;;;;;;;;;2.02;100.00;96059.63;10506566;28;2665;-69
2022/12/01 09:05:51;;;;;;;;;;;;;;;2.09;100.00;96059.56;10510694;28;2655;-69
2022/12/01 09:10:54;;;;;;;;;;;;;;;2.07;100.00;96065.09;10520483;28;2664;-71
2022/12/01 09:15:57;;;;;;;;;;;;;;;2.14;100.00;96065.06;10527911;28;2585;-70
2022/12/01 09:21:00;;;;;;;;;;;;;;;2.17;100.00;96064.66;10516850;28;2126;-69
2022/12/01 09:26:03;;;;;;;;;;;;;;;2.20;100.00;96066.06;10501140;28;2850;-68
2022/12/01 09:31:06;;;;;;;;;;;;;;;2.40;100.00;96062.22;10508375;28;2677;-69
2022/12/01 09:36:10;;;;;;;;;;;;;;;2.25;100.00;96068.88;10513350;28;2569;-67
2022/12/01 09:41:13;;;;;;;;;;;;;;;2.22;100.00;96066.63;10500512;28;2685;-68
2022/12/01 09:46:18;;;;;;;;;;;;;;;2.32;100.00;96057.19;10507056;28;2746;-68
2022/12/01 09:51:21;;;;;;;;;;;;;;;2.11;100.00;96055.69;10508206;28;2828;-68
2022/12/01 09:56:25;;;;;;;;;;;;;;;2.33;100.00;96052.69;10500121;28;2637;-68
2022/12/01 10:01:28;;;;;;;;;;;;;;;2.25;100.00;96055.63;10502682;28;2636;-67
2022/12/01 10:06:31;;;;;;;;;;;;;;;2.14;100.00;96039.34;10494453;28;2605;-69
2022/12/01 10:11:35;;;;;;;;;;;;;;;2.19;100.00;96041.38;10506276;28;2646;-70
2022/12/01 10:16:39;;;;;;;;;;;;;;;1.98;100.00;96039.88;10512878;28;2572;-68
2022/12/01 10:21:42;;;;;;;;;;;;;;;2.24;100.00;96024.81;10508014;28;2610;-67
2022/12/01 10:26:45;;;;;;;;;;;;;;;2.25;100.00;96021.13;10510827;28;2729;-67
2022/12/01 10:31:48;;;;;;;;;;;;;;;1.93;100.00;96023.78;10512466;28;2184;-69
2022/12/01 10:36:52;;;;;;;;;;;;;;;1.90;100.00;96027.66;10514849;28;2634;-68
2022/12/01 10:41:55;;;;;;;;;;;;;;;2.14;100.00;96020.78;10513371;28;2595;-69
2022/12/01 10:46:58;;;;;;;;;;;;;;;2.29;100.00;96017.00;10528230;28;2603;-68
2022/12/01 10:52:01;;;;;;;;;;;;;;;2.28;100.00;96007.44;10515419;28;2609;-70
2022/12/01 10:57:10;;;;;;;;;;;;;;;2.20;100.00;96007.69;10523587;28;2145;-68
2022/12/01 11:02:13;;;;;;;;;;;;;;;2.46;100.00;96004.03;10518208;28;2612;-69
2022/12/01 11:07:17;;;;;;;;;;;;;;;2.62;100.00;96000.84;10514742;28;2849;-68
2022/12/01 11:12:20;;;;;;;;;;;;;;;2.51;100.00;95999.69;10512770;28;2662;-68
2022/12/01 11:17:24;;;;;;;;;;;;;;;2.61;100.00;95997.38;10519704;28;2743;-74
2022/12/01 11:22:27;;;;;;;;;;;;;;;2.53;100.00;95991.50;10517312;28;2702;-70
2022/12/01 11:27:30;;;;;;;;;;;;;;;2.75;100.00;95991.94;10521883;28;2145;-75
2022/12/01 11:32:33;;;;;;;;;;;;;;;2.71;100.00;95981.75;10515864;28;2629;-75
2022/12/01 11:37:36;;;;;;;;;;;;;;;2.45;100.00;95976.69;10520766;28;2655;-74
2022/12/01 11:42:40;;;;;;;;;;;;;;;2.53;100.00;95979.06;10511665;28;2676;-72
2022/12/01 11:47:43;;;;;;;;;;;;;;;2.60;100.00;95974.50;10516992;28;2579;-71
2022/12/01 11:52:46;;;;;;;;;;;;;;;2.46;100.00;95983.63;10510063;28;2587;-69
2022/12/01 11:57:49;;;;;;;;;;;;;;;2.59;100.00;95974.72;10510353;28;2621;-69
2022/12/01 12:02:52;;;;;;;;;;;;;;;2.76;100.00;95977.63;10501308;28;3002;-69
2022/12/01 12:07:55;;;;;;;;;;;;;;;2.62;100.00;95980.41;10514042;28;2656;-73
2022/12/01 12:12:59;;;;;;;;;;;;;;;2.52;100.00;95977.44;10506025;28;2550;-68
2022/12/01 12:18:02;;;;;;;;;;;;;;;2.74;100.00;95977.06;10506055;28;2671;-69
2022/12/01 12:23:05;;;;;;;;;;;;;;;2.73;100.00;95973.56;10514887;28;2676;-69
2022/12/01 12:28:10;;;;;;;;;;;;;;;2.80;100.00;95976.16;10503688;28;2569;-70
2022/12/01 12:33:13;;;;;;;;;;;;;;;2.49;100.00;95967.28;10519697;28;2591;-68
2022/12/01 12:38:16;;;;;;;;;;;;;;;2.76;100.00;95956.41;10508643;28;2584;-69
2022/12/01 12:43:19;;;;;;;;;;;;;;;3.04;100.00;95959.34;10509671;28;2619;-68
2022/12/01 12:48:23;;;;;;;;;;;;;;;3.12;100.00;95956.41;10509305;28;2585;-69
2022/12/01 12:53:26;;;;;;;;;;;;;;;3.06;100.00;95951.19;10502191;28;2649;-68
2022/12/01 12:58:29;;;;;;;;;;;;;;;2.90;100.00;95961.34;10506055;28;2661;-69
2022/12/01 13:03:32;;;;;;;;;;;;;;;2.88;100.00;95955.44;10499814;28;2708;-69
2022/12/01 13:08:36;;;;;;;;;;;;;;;2.54;100.00;95958.63;10505038;28;2693;-68
2022/12/01 13:13:39;;;;;;;;;;;;;;;2.66;100.00;95960.34;10505374;28;2145;-68
2022/12/01 13:18:44;;;;;;;;;;;;;;;2.55;100.00;95966.41;10504738;28;2648;-68
2022/12/01 13:23:47;;;;;;;;;;;;;;;2.56;100.00;95965.38;10498594;28;2648;-67
2022/12/01 13:28:50;;;;;;;;;;;;;;;2.57;100.00;95969.63;10503409;28;2685;-68
2022/12/01 13:33:54;;;;;;;;;;;;;;;2.55;100.00;95963.75;10483440;28;2693;-69
2022/12/01 13:38:57;;;;;;;;;;;;;;;2.43;100.00;95953.03;10504161;28;2600;-68
2022/12/01 13:44:00;;;;;;;;;;;;;;;2.31;100.00;95959.25;10503488;28;2162;-70
2022/12/01 13:49:03;;;;;;;;;;;;;;;2.27;100.00;95958.88;10503746;28;2462;-68
2022/12/01 13:54:06;;;;;;;;;;;;;;;2.26;100.00;95957.25;10504499;28;2643;-71
2022/12/01 13:59:09;;;;;;;;;;;;;;;2.44;100.00;95959.16;10497588;28;2624;-70
2022/12/01 14:04:13;;;;;;;;;;;;;;;2.15;100.00;95945.50;10500041;28;2763;-69
2022/12/01 14:09:16;;;;;;;;;;;;;;;2.27;100.00;95958.06;10501721;28;2712;-68
2022/12/01 14:14:20;;;;;;;;;;;;;;;2.05;100.00;95958.44;10502895;28;2641;-68
2022/12/01 14:19:28;;;;;;;;;;;;;;;2.20;100.00;95952.81;10503024;28;2580;-70
2022/12/01 14:24:31;;;;;;;;;;;;;;;2.37;100.00;95959.22;10506803;28;2218;-69
2022/12/01 14:29:37;;;;;;;;;;;;;;;2.19;100.00;95963.66;10518735;28;2634;-69
2022/12/01 14:34:40;;;;;;;;;;;;;;;2.21;100.00;95964.22;10508999;28;2982;-69
2022/12/01 14:39:43;;;;;;;;;;;;;;;2.28;100.00;95975.59;10518423;28;2656;-69
2022/12/01 14:44:46;;;;;;;;;;;;;;;2.15;100.00;95965.91;10514505;28;2598;-67
2022/12/01 14:49:50;;;;;;;;;;;;;;;2.30;100.00;95968.25;10507426;28;2641;-69
2022/12/01 14:54:53;;;;;;;;;;;;;;;2.16;100.00;95971.00;10516274;28;3001;-68
2022/12/01 14:59:56;;;;;;;;;;;;;;;2.27;100.00;95963.38;10517878;28;2644;-67
2022/12/01 15:04:59;;;;;;;;;;;;;;;2.10;100.00;95966.56;10509123;28;2564;-68
2022/12/01 15:10:03;;;;;;;;;;;;;;;2.25;100.00;95966.25;10512151;28;2823;-68
2022/12/01 15:15:06;;;;;;;;;;;;;;;2.42;100.00;95966.53;10506016;28;2557;-70
2022/12/01 15:20:12;;;;;;;;;;;;;;;2.37;100.00;95969.81;10512367;28;2636;-69
2022/12/01 15:25:16;;;;;;;;;;;;;;;2.30;100.00;95968.25;10515626;28;2648;-68
2022/12/01 15:30:19;;;;;;;;;;;;;;;2.21;100.00;95969.53;10496168;28;2633;-70
2022/12/01 15:35:22;;;;;;;;;;;;;;;2.09;100.00;95967.56;10508088;28;3045;-69
2022/12/01 15:40:26;;;;;;;;;;;;;;;1.99;100.00;95969.09;10509188;28;2177;-69
2022/12/01 15:45:49;;;;;;;;;;;;;;;1.87;100.00;95968.97;10490407;28;2628;-68
2022/12/01 15:50:53;;;;;;;;;;;;;;;2.07;100.00;95968.81;10509995;28;2693;-70
2022/12/01 15:55:56;;;;;;;;;;;;;;;2.08;100.00;95965.94;10505327;28;2676;-72
2022/12/01 16:01:01;;;;;;;;;;;;;;;2.26;100.00;95970.50;10512805;28;2613;-71
2022/12/01 16:06:04;;;;;;;;;;;;;;;2.41;100.00;95964.88;10500367;28;2143;-71
2022/12/01 16:11:08;;;;;;;;;;;;;;;2.55;100.00;95969.06;10520368;28;2739;-69
2022/12/01 16:16:11;;;;;;;;;;;;;;;2.50;100.00;95957.47;10509418;28;2619;-69
2022/12/01 16:21:15;;;;;;;;;;;;;;;2.47;100.00;95957.88;10516568;28;2183;-69
2022/12/01 16:26:18;;;;;;;;;;;;;;;2.46;100.00;95969.53;10501552;28;2136;-68
2022/12/01 16:31:21;;;;;;;;;;;;;;;2.44;100.00;95964.47;10504523;28;2574;-69
2022/12/01 16:36:24;;;;;;;;;;;;;;;2.37;100.00;95969.00;10504993;28;2607;-70
2022/12/01 16:41:29;;;;;;;;;;;;;;;2.30;100.00;95960.28;10509920;28;2575;-69
2022/12/01 16:46:40;;;;;;;;;;;;;;;2.25;100.00;95971.56;10506516;28;2617;-68
2022/12/01 16:51:43;;;;;;;;;;;;;;;2.17;100.00;95967.34;10529433;28;2640;-70
2022/12/01 16:57:01;;;;;;;;;;;;;;;2.03;100.00;95968.44;10499289;28;2697;-68
2022/12/01 17:02:04;;;;;;;;;;;;;;;2.06;100.00;95962.72;10549719;27;2648;-69
2022/12/01 17:07:07;;;;;;;;;;;;;;;2.20;100.00;95966.06;10509601;28;2602;-67
2022/12/01 17:12:10;;;;;;;;;;;;;;;2.12;100.00;95961.84;10502481;28;2619;-67
2022/12/01 17:17:13;;;;;;;;;;;;;;;2.05;100.00;95966.41;10503476;28;2179;-77
2022/12/01 17:22:17;;;;;;;;;;;;;;;2.07;100.00;95967.00;10503141;28;2626;-68
2022/12/01 17:27:20;;;;;;;;;;;;;;;1.97;100.00;95966.63;10497714;28;2635;-70
2022/12/01 17:32:23;;;;;;;;;;;;;;;2.11;100.00;95965.53;10512882;28;2642;-70
2022/12/01 17:37:27;;;;;;;;;;;;;;;2.14;100.00;95969.59;10508307;28;2744;-69
2022/12/01 17:42:30;;;;;;;;;;;;;;;2.09;100.00;95964.91;10515783;28;2616;-69
2022/12/01 17:47:34;;;;;;;;;;;;;;;2.07;100.00;95964.34;10509769;28;2773;-68
2022/12/01 17:52:37;;;;;;;;;;;;;;;2.10;100.00;95971.03;10541109;28;2865;-69
2022/12/01 17:57:48;;;;;;;;;;;;;;;2.02;100.00;95960.69;10495467;28;2738;-69
2022/12/01 18:02:51;;;;;;;;;;;;;;;1.92;100.00;95966.50;10507602;28;2619;-69
2022/12/01 18:07:55;;;;;;;;;;;;;;;1.90;100.00;95979.13;10503489;28;2620;-70
2022/12/01 18:12:58;;;;;;;;;;;;;;;1.91;100.00;95972.81;10513527;28;2621;-70
2022/12/01 18:18:01;;;;;;;;;;;;;;;2.11;100.00;95972.69;10501659;28;2586;-69
2022/12/01 18:23:04;;;;;;;;;;;;;;;2.20;100.00;95975.88;10505000;28;2676;-68
2022/12/01 18:28:09;;;;;;;;;;;;;;;2.23;100.00;95983.38;10502590;28;2204;-69
2022/12/01 18:33:13;;;;;;;;;;;;;;;2.13;100.00;95982.03;10510005;28;2576;-68
2022/12/01 18:38:16;;;;;;;;;;;;;;;2.37;100.00;95979.63;10495374;28;2133;-71
2022/12/01 18:43:19;;;;;;;;;;;;;;;2.33;100.00;95979.22;10499218;28;2618;-68
2022/12/01 18:48:22;;;;;;;;;;;;;;;2.20;100.00;95979.34;10515382;28;2715;-69
2022/12/01 18:53:25;;;;;;;;;;;;;;;2.24;100.00;95979.72;10507494;28;2606;-74
2022/12/01 18:58:29;;;;;;;;;;;;;;;2.23;100.00;95988.69;10521440;28;2602;-77
2022/12/01 19:03:32;;;;;;;;;;;;;;;2.22;100.00;95981.75;10522196;28;2221;-70
2022/12/01 19:08:35;;;;;;;;;;;;;;;2.16;100.00;95981.63;10528553;27;2594;-68
2022/12/01 19:13:38;;;;;;;;;;;;;;;2.25;100.00;95987.47;10527922;28;2570;-68
2022/12/01 19:18:41;;;;;;;;;;;;;;;2.25;100.00;95981.34;10518820;28;2679;-69
2022/12/01 19:23:44;;;;;;;;;;;;;;;2.13;100.00;95979.38;10512738;28;2816;-69
2022/12/01 19:28:47;;;;;;;;;;;;;;;2.16;100.00;95983.44;10514778;28;2628;-67
2022/12/01 19:33:58;;;;;;;;;;;;;;;2.13;100.00;95979.38;10516795;28;2597;-70
2022/12/01 19:39:01;;;;;;;;;;;;;;;2.13;100.00;95979.38;10510555;28;2192;-69
2022/12/01 19:44:09;;;;;;;;;;;;;;;2.21;100.00;95985.44;10506579;28;2555;-68
2022/12/01 19:49:13;;;;;;;;;;;;;;;2.17;100.00;95990.38;10510192;28;2184;-71
2022/12/01 19:54:16;;;;;;;;;;;;;;;2.17;100.00;95985.91;10517535;28;2617;-68
2022/12/01 19:59:19;;;;;;;;;;;;;;;2.17;100.00;95985.91;10509568;28;2602;-69
2022/12/01 20:04:23;;;;;;;;;;;;;;;2.08;100.00;95986.34;10489551;28;2628;-72
2022/12/01 20:09:26;;;;;;;;;;;;;;;2.14;100.00;95974.91;10472487;28;2632;-72
2022/12/01 20:14:29;;;;;;;;;;;;;;;2.01;100.00;95975.81;10473993;28;2620;-69
2022/12/01 20:19:33;;;;;;;;;;;;;;;2.05;100.00;95977.00;10467451;28;2626;-71
2022/12/01 20:24:38;;;;;;;;;;;;;;;2.15;100.00;95979.16;10478732;28;2188;-70
2022/12/01 20:29:41;;;;;;;;;;;;;;;2.23;100.00;95975.44;10469354;28;2752;-72
2022/12/01 20:34:44;;;;;;;;;;;;;;;2.27;100.00;95981.94;10469009;28;2564;-70
2022/12/01 20:39:47;;;;;;;;;;;;;;;2.20;100.00;95979.34;10466575;28;2769;-68
2022/12/01 20:44:51;;;;;;;;;;;;;;;2.16;100.00;95980.78;10462175;28;2603;-69
2022/12/01 20:49:56;;;;;;;;;;;;;;;2.16;100.00;95978.97;10470690;28;2563;-68
2022/12/01 20:55:01;;;;;;;;;;;;;;;2.19;100.00;95987.50;10479252;28;2600;-68
2022/12/01 21:00:04;;;;;;;;;;;;;;;2.14;100.00;95978.34;10471027;28;2614;-68
2022/12/01 21:05:10;;;;;;;;;;;;;;;2.06;100.00;95978.63;10502624;28;2663;-68
2022/12/01 21:10:13;;;;;;;;;;;;;;;2.07;100.00;95974.13;10516722;28;2674;-67
2022/12/01 21:15:22;;;;;;;;;;;;;;;2.09;100.00;95972.06;10513423;28;2592;-67
2022/12/01 21:20:25;;;;;;;;;;;;;;;2.23;100.00;95967.47;10513591;28;2601;-67
2022/12/01 21:25:29;;;;;;;;;;;;;;;2.29;100.00;95971.91;10542160;27;2623;-67
2022/12/01 21:30:32;;;;;;;;;;;;;;;2.24;100.00;95966.47;10509548;28;2552;-67
2022/12/01 21:35:36;;;;;;;;;;;;;;;2.28;100.00;95965.00;10500427;28;2631;-68
2022/12/01 21:40:39;;;;;;;;;;;;;;;2.37;100.00;95969.00;10500803;28;2649;-72
2022/12/01 21:45:42;;;;;;;;;;;;;;;2.51;100.00;95959.91;10510639;28;2755;-68
2022/12/01 21:50:45;;;;;;;;;;;;;;;2.41;100.00;95970.19;10520868;28;2580;-67
2022/12/01 21:55:55;;;;;;;;;;;;;;;2.41;100.00;95967.53;10520365;28;2852;-69
2022/12/01 22:00:58;;;;;;;;;;;;;;;2.40;100.00;95968.56;10519951;28;2517;-69
2022/12/01 22:06:02;;;;;;;;;;;;;;;2.20;100.00;95968.72;10504652;28;2634;-67
2022/12/01 22:11:25;;;;;;;;;;;;;;;2.22;100.00;95965.84;10504224;28;2613;-67
2022/12/01 22:16:28;;;;;;;;;;;;;;;2.16;100.00;95955.09;10519673;28;2724;-68
2022/12/01 22:21:31;;;;;;;;;;;;;;;2.12;100.00;95956.56;10485852;28;2607;-68
2022/12/01 22:26:34;;;;;;;;;;;;;;;1.93;100.00;95962.81;10496839;28;2655;-69
2022/12/01 22:31:37;;;;;;;;;;;;;;;1.99;100.00;95964.59;10505706;28;2790;-77
2022/12/01 22:36:40;;;;;;;;;;;;;;;2.05;100.00;95961.09;10488963;28;2635;-67
2022/12/01 22:41:43;;;;;;;;;;;;;;;2.15;100.00;95957.94;10515694;28;2543;-68
2022/12/01 22:46:47;;;;;;;;;;;;;;;2.13;100.00;95941.44;10506782;28;2157;-67
2022/12/01 22:51:50;;;;;;;;;;;;;;;2.04;100.00;95943.56;10517229;28;2575;-67
2022/12/01 22:56:56;;;;;;;;;;;;;;;2.07;100.00;95937.81;10518672;28;2628;-66
2022/12/01 23:01:59;;;;;;;;;;;;;;;2.14;100.00;95927.97;10513408;28;2621;-68
2022/12/01 23:07:02;;;;;;;;;;;;;;;2.22;100.00;95934.03;10515946;28;2689;-66
2022/12/01 23:12:06;;;;;;;;;;;;;;;2.27;100.00;95920.94;10513670;28;2153;-69
2022/12/01 23:17:09;;;;;;;;;;;;;;;2.32;100.00;95923.75;10511389;28;2593;-69
2022/12/01 23:22:12;;;;;;;;;;;;;;;2.31;100.00;95927.44;10511353;28;2643;-67
2022/12/01 23:27:15;;;;;;;;;;;;;;;2.35;100.00;95918.81;10503265;28;2655;-68
2022/12/01 23:32:25;;;;;;;;;;;;;;;2.35;100.00;95912.69;10512886;28;2583;-67
2022/12/01 23:37:28;;;;;;;;;;;;;;;2.35;100.00;95908.19;10503730;28;2622;-79
2022/12/01 23:42:32;;;;;;;;;;;;;;;2.34;100.00;95911.88;10513144;28;2632;-72
2022/12/01 23:47:35;;;;;;;;;;;;;;;2.32;100.00;95907.84;10511526;28;2714;-77
2022/12/01 23:52:38;;;;;;;;;;;;;;;2.19;100.00;95900.00;10509152;28;2101;-69
2022/12/01 23:57:41;;;;;;;;;;;;;;;2.07;100.00;95894.59;10504079;28;2204;-68
